createdAt,value
2023-06-29T00:01:53.426Z,1.88
2023-06-29T00:04:27.445Z,1.80
2023-06-29T00:06:58.202Z,2.25
2023-06-29T00:09:28.777Z,1.80
2023-06-29T00:12:01.900Z,1.85
2023-06-29T00:14:32.393Z,1.60
2023-06-29T00:17:02.919Z,2.08
2023-06-29T00:19:33.449Z,1.83
2023-06-29T00:22:03.968Z,1.80
2023-06-29T00:24:35.488Z,2.28
2023-06-29T00:27:09.556Z,1.65
2023-06-29T00:29:40.177Z,2.00
2023-06-29T00:32:12.879Z,1.90
2023-06-29T00:34:43.594Z,1.92
2023-06-29T00:37:14.357Z,2.10
2023-06-29T00:39:44.866Z,1.80
2023-06-29T00:42:18.131Z,2.00
2023-06-29T00:44:49.650Z,1.92
2023-06-29T00:47:21.330Z,1.77
2023-06-29T00:49:51.912Z,1.83
2023-06-29T00:52:22.804Z,2.03
2023-06-29T00:57:26.481Z,1.80
2023-06-29T01:00:00.870Z,1.90
2023-06-29T01:02:33.517Z,1.67
2023-06-29T01:05:06.294Z,1.70
2023-06-29T01:10:15.441Z,1.90
2023-06-29T01:12:50.407Z,1.90
2023-06-29T01:15:21.633Z,1.90
2023-06-29T01:17:55.787Z,1.83
2023-06-29T01:20:28.154Z,1.90
2023-06-29T01:23:04.628Z,2.10
2023-06-29T01:25:39.539Z,2.20
2023-06-29T01:28:11.355Z,2.40
2023-06-29T01:30:50.052Z,2.42
2023-06-29T01:33:25.560Z,1.80
2023-06-29T01:36:04.425Z,2.15
2023-06-29T01:38:41.647Z,2.22
2023-06-29T01:41:17.121Z,1.95
2023-06-29T01:43:48.758Z,2.08
2023-06-29T01:46:20.167Z,2.10
2023-06-29T01:48:51.521Z,1.95
2023-06-29T01:51:22.373Z,1.80
2023-06-29T01:53:53.678Z,1.90
2023-06-29T01:56:26.837Z,1.95
2023-06-29T01:58:57.332Z,1.90
2023-06-29T02:01:27.927Z,1.80
2023-06-29T02:03:58.641Z,2.15
2023-06-29T02:09:00.025Z,1.90
2023-06-29T02:11:33.318Z,1.67
2023-06-29T02:14:03.887Z,2.10
2023-06-29T02:16:34.683Z,1.73
2023-06-29T02:21:37.229Z,1.85
2023-06-29T02:24:08.917Z,1.98
2023-06-29T02:26:42.121Z,1.98
2023-06-29T02:29:12.745Z,1.90
2023-06-29T02:31:43.350Z,1.88
2023-06-29T02:34:14.008Z,1.92
2023-06-29T02:36:44.651Z,2.20
2023-06-29T02:39:18.744Z,2.00
2023-06-29T02:41:51.940Z,2.20
2023-06-29T02:44:22.579Z,1.83
2023-06-29T02:46:53.092Z,1.70
2023-06-29T02:49:23.706Z,2.00
2023-06-29T02:51:54.881Z,1.98
2023-06-29T02:54:25.620Z,1.92
2023-06-29T02:56:59.651Z,2.17
2023-06-29T02:59:31.993Z,2.58
2023-06-29T03:02:02.603Z,2.03
2023-06-29T03:04:33.270Z,1.88
2023-06-29T03:07:06.508Z,1.88
2023-06-29T03:09:38.547Z,2.00
2023-06-29T03:12:14.442Z,1.98
2023-06-29T03:14:44.957Z,1.85
2023-06-29T03:17:15.838Z,2.00
2023-06-29T03:22:16.914Z,1.98
2023-06-29T03:24:47.411Z,2.25
2023-06-29T03:27:20.586Z,2.22
2023-06-29T03:29:55.566Z,2.70
2023-06-29T03:32:26.186Z,2.30
2023-06-29T03:34:56.720Z,2.25
2023-06-29T03:37:27.213Z,2.70
2023-06-29T03:39:57.733Z,2.00
2023-06-29T03:42:30.887Z,2.08
2023-06-29T03:45:01.432Z,2.15
2023-06-29T03:47:32.046Z,2.03
2023-06-29T03:50:02.599Z,1.77
2023-06-29T03:52:33.191Z,2.05
2023-06-29T03:55:03.872Z,2.60
2023-06-29T03:57:36.972Z,2.00
2023-06-29T04:00:09.178Z,1.83
2023-06-29T04:02:45.778Z,2.00
2023-06-29T04:05:16.317Z,1.90
2023-06-29T04:07:46.956Z,2.00
2023-06-29T04:10:17.593Z,2.35
2023-06-29T04:12:50.716Z,1.98
2023-06-29T04:15:21.230Z,1.92
2023-06-29T04:17:51.839Z,2.05
2023-06-29T04:20:22.630Z,1.98
2023-06-29T04:22:53.521Z,2.28
2023-06-29T04:27:57.231Z,2.15
2023-06-29T04:30:27.910Z,2.35
2023-06-29T04:33:03.354Z,2.05
2023-06-29T04:35:33.930Z,2.35
2023-06-29T04:38:04.470Z,2.10
2023-06-29T04:40:35.045Z,2.15
2023-06-29T04:43:09.017Z,2.22
2023-06-29T04:45:42.453Z,2.50
2023-06-29T04:48:13.964Z,2.92
2023-06-29T04:50:44.445Z,2.28
2023-06-29T04:53:15.380Z,2.50
2023-06-29T04:55:46.324Z,2.63
2023-06-29T04:58:19.632Z,2.60
2023-06-29T05:00:50.262Z,2.20
2023-06-29T05:03:20.990Z,2.13
2023-06-29T05:05:51.577Z,2.40
2023-06-29T05:08:22.213Z,2.60
2023-06-29T05:10:53.250Z,2.40
2023-06-29T05:13:26.426Z,2.47
2023-06-29T05:15:57.651Z,2.30
2023-06-29T05:18:28.170Z,2.55
2023-06-29T05:20:59.020Z,2.50
2023-06-29T05:25:59.934Z,2.05
2023-06-29T05:31:03.523Z,1.90
2023-06-29T05:36:04.441Z,2.10
2023-06-29T05:38:35.113Z,1.90
2023-06-29T05:41:06.772Z,2.13
2023-06-29T05:43:40.043Z,2.20
2023-06-29T05:46:10.760Z,2.00
2023-06-29T05:51:11.683Z,2.20
2023-06-29T05:53:42.263Z,2.35
2023-06-29T05:56:12.814Z,2.20
2023-06-29T05:58:46.007Z,2.05
2023-06-29T06:01:16.673Z,1.90
2023-06-29T06:03:47.531Z,2.20
2023-06-29T06:06:18.251Z,1.88
2023-06-29T06:08:48.799Z,2.05
2023-06-29T06:11:19.561Z,2.10
2023-06-29T06:16:23.110Z,1.80
2023-06-29T06:18:54.118Z,2.45
2023-06-29T06:21:25.286Z,2.00
2023-06-29T06:23:57.478Z,2.03
2023-06-29T06:26:28.154Z,2.15
2023-06-29T06:31:34.223Z,1.98
2023-06-29T06:34:05.648Z,2.00
2023-06-29T06:36:36.437Z,3.33
2023-06-29T06:41:37.761Z,2.28
2023-06-29T06:44:11.317Z,1.77
2023-06-29T06:46:41.994Z,1.60
2023-06-29T06:49:12.709Z,2.13
2023-06-29T06:54:13.634Z,1.80
2023-06-29T06:59:17.103Z,1.90
2023-06-29T07:01:47.862Z,1.92
2023-06-29T07:04:18.705Z,2.03
2023-06-29T07:06:49.980Z,2.10
2023-06-29T07:09:20.532Z,2.00
2023-06-29T07:11:51.475Z,1.70
2023-06-29T07:14:25.432Z,1.73
2023-06-29T07:16:57.082Z,1.70
2023-06-29T07:24:35.138Z,1.70
2023-06-29T07:27:05.836Z,1.70
2023-06-29T07:29:39.120Z,1.88
2023-06-29T07:32:12.014Z,1.73
2023-06-29T07:34:42.687Z,1.50
2023-06-29T07:37:13.221Z,2.10
2023-06-29T07:39:43.881Z,1.88
2023-06-29T07:42:20.914Z,1.77
2023-06-29T07:44:59.901Z,1.80
2023-06-29T07:47:30.624Z,1.58
2023-06-29T07:50:01.216Z,1.83
2023-06-29T07:52:32.346Z,1.65
2023-06-29T07:55:03.021Z,1.77
2023-06-29T08:00:12.670Z,1.70
2023-06-29T08:02:53.198Z,1.90
2023-06-29T08:07:58.115Z,2.47
2023-06-29T08:10:28.869Z,1.60
2023-06-29T08:13:03.723Z,2.00
2023-06-29T08:15:39.022Z,1.85
2023-06-29T08:18:09.753Z,1.85
2023-06-29T08:20:40.541Z,1.60
2023-06-29T08:23:11.396Z,2.40
2023-06-29T08:25:41.985Z,1.80
2023-06-29T08:28:12.658Z,1.63
2023-06-29T08:30:46.245Z,1.80
2023-06-29T08:33:16.876Z,1.80
2023-06-29T08:35:47.736Z,1.45
2023-06-29T08:38:18.163Z,2.10
2023-06-29T08:40:50.810Z,1.63
2023-06-29T08:43:22.863Z,1.88
2023-06-29T08:45:56.025Z,1.80
2023-06-29T08:48:27.821Z,1.90
2023-06-29T08:51:06.940Z,1.85
2023-06-29T08:53:38.316Z,2.10
2023-06-29T08:56:09.866Z,1.90
2023-06-29T08:58:41.575Z,1.98
2023-06-29T09:01:15.147Z,1.98
2023-06-29T09:03:45.980Z,1.90
2023-06-29T09:06:16.699Z,1.85
2023-06-29T09:08:47.638Z,2.08
2023-06-29T09:11:18.279Z,1.80
2023-06-29T09:13:49.106Z,1.90
2023-06-29T09:16:23.333Z,1.83
2023-06-29T09:18:55.711Z,1.85
2023-06-29T09:21:27.429Z,1.90
2023-06-29T09:24:01.927Z,1.70
2023-06-29T09:26:32.963Z,2.08
2023-06-29T09:29:05.062Z,2.17
2023-06-29T09:31:41.241Z,2.30
2023-06-29T09:34:21.770Z,2.85
2023-06-29T09:36:53.107Z,2.88
2023-06-29T09:39:24.876Z,2.70
2023-06-29T09:41:58.312Z,1.83
2023-06-29T09:44:30.383Z,2.13
2023-06-29T09:49:52.857Z,1.90
2023-06-29T09:52:23.602Z,1.80
2023-06-29T09:54:54.064Z,2.10
2023-06-29T09:57:28.232Z,1.98
2023-06-29T10:00:00.021Z,1.65
2023-06-29T10:02:33.419Z,10.93
2023-06-29T10:05:04.710Z,2.05
2023-06-29T10:07:37.467Z,1.90
2023-06-29T10:10:15.035Z,2.00
2023-06-29T10:12:46.010Z,1.80
2023-06-29T10:15:18.531Z,1.85
2023-06-29T10:18:00.294Z,1.80
2023-06-29T10:20:34.203Z,1.70
2023-06-29T10:23:08.869Z,1.83
2023-06-29T10:25:45.117Z,2.13
2023-06-29T10:28:17.832Z,1.92
2023-06-29T10:30:49.479Z,1.70
2023-06-29T10:33:28.066Z,1.85
2023-06-29T10:36:02.829Z,1.98
2023-06-29T10:38:36.061Z,1.88
2023-06-29T10:41:10.281Z,1.92
2023-06-29T10:43:59.492Z,1.90
2023-06-29T10:46:50.081Z,1.83
2023-06-29T10:49:30.701Z,1.60
2023-06-29T10:52:07.094Z,1.90
2023-06-29T10:54:37.761Z,1.52
2023-06-29T10:57:12.038Z,2.00
2023-06-29T10:59:43.371Z,1.67
2023-06-29T11:02:14.926Z,1.70
2023-06-29T11:04:48.396Z,1.77
2023-06-29T11:07:19.239Z,1.80
2023-06-29T11:09:49.785Z,2.53
2023-06-29T11:12:20.783Z,2.10
2023-06-29T11:17:47.175Z,1.90
2023-06-29T11:20:23.026Z,2.13
2023-06-29T11:22:53.755Z,1.98
2023-06-29T11:25:24.303Z,2.10
2023-06-29T11:27:57.001Z,2.10
2023-06-29T11:30:27.619Z,2.80
2023-06-29T11:32:58.527Z,2.05
2023-06-29T11:35:32.709Z,2.03
2023-06-29T11:38:04.563Z,2.35
2023-06-29T11:40:35.490Z,2.10
2023-06-29T11:43:06.193Z,2.38
2023-06-29T11:45:37.368Z,1.88
2023-06-29T11:48:08.852Z,2.13
2023-06-29T11:50:42.032Z,2.05
2023-06-29T11:53:13.586Z,2.20
2023-06-29T11:55:52.789Z,1.90
2023-06-29T12:00:59.810Z,2.30
2023-06-29T12:03:30.948Z,2.38
2023-06-29T12:06:06.968Z,2.28
2023-06-29T12:08:46.969Z,2.22
2023-06-29T12:11:23.265Z,2.10
2023-06-29T12:13:53.849Z,2.30
2023-06-29T12:18:59.759Z,2.35
2023-06-29T12:21:38.152Z,2.00
2023-06-29T12:24:09.738Z,2.08
2023-06-29T12:26:40.319Z,2.42
2023-06-29T12:29:11.400Z,2.15
2023-06-29T12:31:42.299Z,2.28
2023-06-29T12:34:12.942Z,2.40
2023-06-29T12:36:46.864Z,2.30
2023-06-29T12:39:20.928Z,1.95
2023-06-29T12:41:51.891Z,2.40
2023-06-29T12:44:22.539Z,2.10
2023-06-29T12:46:53.266Z,2.25
2023-06-29T12:49:27.890Z,1.98
2023-06-29T12:52:01.284Z,2.50
2023-06-29T12:54:32.401Z,2.10
2023-06-29T12:57:03.514Z,2.22
2023-06-29T12:59:34.195Z,1.92
2023-06-29T13:02:06.198Z,2.05
2023-06-29T13:04:39.586Z,2.80
2023-06-29T13:07:13.295Z,2.30
2023-06-29T13:09:46.144Z,2.15
2023-06-29T13:12:17.385Z,2.67
2023-06-29T13:14:50.832Z,2.00
2023-06-29T13:17:21.448Z,1.92
2023-06-29T13:19:52.388Z,2.00
2023-06-29T13:22:27.031Z,1.80
2023-06-29T13:24:57.760Z,1.75
2023-06-29T13:27:28.337Z,1.65
2023-06-29T13:29:58.878Z,2.13
2023-06-29T13:32:29.497Z,2.42
2023-06-29T13:35:01.056Z,2.17
2023-06-29T13:37:34.193Z,2.10
2023-06-29T13:40:04.786Z,2.40
2023-06-29T13:42:35.329Z,2.22
2023-06-29T13:45:06.234Z,2.60
2023-06-29T13:47:36.798Z,2.40
2023-06-29T13:50:08.489Z,2.33
2023-06-29T13:52:41.656Z,2.22
2023-06-29T13:55:12.742Z,2.20
2023-06-29T13:57:43.253Z,2.42
2023-06-29T14:00:16.227Z,2.25
2023-06-29T14:02:46.868Z,2.22
2023-06-29T14:05:17.450Z,2.35
2023-06-29T14:07:50.621Z,2.40
2023-06-29T14:10:21.368Z,2.20
2023-06-29T14:12:51.963Z,2.22
2023-06-29T14:15:22.651Z,2.00
2023-06-29T14:17:53.548Z,2.10
2023-06-29T14:20:24.113Z,2.10
2023-06-29T14:22:57.196Z,2.28
2023-06-29T14:25:27.690Z,2.20
2023-06-29T14:27:58.198Z,2.20
2023-06-29T14:30:28.691Z,1.98
2023-06-29T14:32:59.441Z,2.22
2023-06-29T14:35:32.231Z,1.83
2023-06-29T14:38:13.327Z,1.95
2023-06-29T14:40:45.279Z,1.90
2023-06-29T14:43:15.996Z,2.17
2023-06-29T14:45:46.962Z,2.05
2023-06-29T14:48:17.722Z,2.00
2023-06-29T14:50:50.196Z,2.20
2023-06-29T14:53:23.807Z,2.00
2023-06-29T14:55:55.797Z,1.90
2023-06-29T14:58:26.369Z,2.10
2023-06-29T15:00:56.896Z,2.20
2023-06-29T15:03:27.563Z,1.98
2023-06-29T15:05:58.755Z,1.90
2023-06-29T15:08:31.893Z,2.40
2023-06-29T15:11:02.424Z,1.85
2023-06-29T15:13:33.949Z,1.83
2023-06-29T15:16:04.500Z,2.00
2023-06-29T15:18:43.360Z,1.95
2023-06-29T15:21:21.252Z,2.00
2023-06-29T15:23:54.454Z,2.20
2023-06-29T15:26:26.047Z,1.83
2023-06-29T15:28:56.901Z,1.65
2023-06-29T15:31:27.613Z,2.00
2023-06-29T15:33:58.704Z,1.77
2023-06-29T15:36:29.346Z,1.70
2023-06-29T15:39:03.763Z,1.85
2023-06-29T15:41:34.302Z,1.70
2023-06-29T15:44:06.806Z,1.70
2023-06-29T15:46:37.403Z,1.73
2023-06-29T15:49:07.990Z,1.88
2023-06-29T15:51:38.552Z,2.25
2023-06-29T15:54:11.706Z,2.10
2023-06-29T15:56:42.257Z,2.08
2023-06-29T15:59:12.787Z,1.90
2023-06-29T16:01:43.445Z,2.58
2023-06-29T16:04:17.316Z,4.03
2023-06-29T16:06:49.660Z,4.57
2023-06-29T16:09:22.760Z,3.90
2023-06-29T16:11:53.424Z,3.30
2023-06-29T16:14:23.943Z,3.13
2023-06-29T16:16:54.597Z,3.00
2023-06-29T16:19:25.368Z,2.03
2023-06-29T16:21:55.948Z,2.40
2023-06-29T16:24:29.186Z,3.40
2023-06-29T16:26:59.753Z,4.93
2023-06-29T16:29:30.433Z,5.88
2023-06-29T16:32:01.099Z,4.70
2023-06-29T16:34:31.673Z,4.90
2023-06-29T16:37:02.377Z,5.70
2023-06-29T16:39:35.612Z,4.65
2023-06-29T16:42:06.331Z,3.33
2023-06-29T16:44:37.029Z,3.95
2023-06-29T16:47:07.998Z,3.92
2023-06-29T16:49:38.590Z,3.75
2023-06-29T16:52:10.941Z,3.30
2023-06-29T16:54:44.172Z,3.20
2023-06-29T16:57:14.909Z,2.97
2023-06-29T16:59:45.544Z,3.08
2023-06-29T17:02:16.431Z,3.78
2023-06-29T17:04:47.030Z,2.92
2023-06-29T17:07:17.698Z,2.88
2023-06-29T17:09:50.892Z,2.58
2023-06-29T17:12:21.576Z,2.53
2023-06-29T17:14:52.367Z,2.40
2023-06-29T17:17:22.928Z,2.03
2023-06-29T17:19:53.721Z,2.15
2023-06-29T17:22:24.352Z,2.10
2023-06-29T17:24:57.586Z,9.52
2023-06-29T17:27:28.104Z,8.32
2023-06-29T17:29:58.633Z,6.80
2023-06-29T17:32:29.818Z,4.95
2023-06-29T17:35:00.793Z,4.88
2023-06-29T17:37:31.287Z,4.30
2023-06-29T17:40:04.712Z,4.10
2023-06-29T17:42:35.741Z,4.57
2023-06-29T17:45:07.325Z,3.65
2023-06-29T17:47:37.834Z,3.45
2023-06-29T17:50:10.468Z,3.03
2023-06-29T17:52:41.071Z,3.83
2023-06-29T17:55:14.578Z,3.85
2023-06-29T17:57:45.472Z,3.55
2023-06-29T18:00:18.470Z,3.72
2023-06-29T18:02:49.363Z,3.45
2023-06-29T18:05:20.118Z,3.20
2023-06-29T18:07:50.641Z,3.25
2023-06-29T18:10:24.349Z,3.30
2023-06-29T18:12:55.001Z,3.47
2023-06-29T18:15:26.306Z,2.90
2023-06-29T18:17:57.418Z,2.75
2023-06-29T18:20:28.240Z,3.33
2023-06-29T18:22:58.897Z,3.10
2023-06-29T18:25:32.191Z,2.15
2023-06-29T18:28:02.810Z,2.55
2023-06-29T18:30:33.576Z,2.60
2023-06-29T18:33:04.327Z,2.40
2023-06-29T18:35:34.948Z,2.97
2023-06-29T18:38:05.523Z,2.22
2023-06-29T18:40:38.656Z,2.05
2023-06-29T18:43:09.122Z,2.05
2023-06-29T18:45:39.758Z,2.00
2023-06-29T18:48:10.658Z,1.80
2023-06-29T18:50:41.350Z,2.10
2023-06-29T18:53:11.942Z,2.22
2023-06-29T18:55:45.605Z,1.90
2023-06-29T18:58:16.668Z,1.73
2023-06-29T19:00:47.564Z,2.30
2023-06-29T19:03:18.278Z,2.20
2023-06-29T19:05:49.342Z,1.77
2023-06-29T19:08:21.304Z,2.08
2023-06-29T19:10:56.139Z,1.88
2023-06-29T19:13:27.413Z,1.80
2023-06-29T19:16:00.286Z,1.95
2023-06-29T19:18:32.364Z,1.80
2023-06-29T19:21:03.192Z,1.90
2023-06-29T19:23:34.210Z,1.73
2023-06-29T19:26:07.434Z,1.88
2023-06-29T19:28:38.138Z,2.08
2023-06-29T19:31:08.744Z,1.85
2023-06-29T19:33:39.474Z,2.20
2023-06-29T19:36:10.216Z,2.08
2023-06-29T19:38:41.014Z,1.70
2023-06-29T19:41:14.629Z,1.80
2023-06-29T19:43:45.336Z,1.80
2023-06-29T19:46:16.119Z,1.90
2023-06-29T19:48:46.934Z,2.38
2023-06-29T19:51:17.781Z,3.15
2023-06-29T19:53:48.990Z,2.92
2023-06-29T19:56:22.488Z,2.50
2023-06-29T19:58:53.129Z,2.88
2023-06-29T20:01:23.736Z,3.88
2023-06-29T20:03:54.438Z,3.80
2023-06-29T20:06:25.534Z,3.35
2023-06-29T20:08:56.674Z,2.83
2023-06-29T20:11:29.959Z,3.83
2023-06-29T20:14:00.574Z,3.10
2023-06-29T20:16:31.334Z,2.80
2023-06-29T20:19:01.961Z,2.50
2023-06-29T20:21:32.645Z,2.30
2023-06-29T20:24:03.712Z,2.30
2023-06-29T20:26:37.887Z,2.30
2023-06-29T20:29:08.342Z,2.00
2023-06-29T20:34:10.072Z,2.45
2023-06-29T20:36:40.769Z,2.80
2023-06-29T20:39:11.316Z,2.28
2023-06-29T20:41:47.827Z,2.22
2023-06-29T20:44:19.751Z,2.10
2023-06-29T20:46:50.987Z,2.33
2023-06-29T20:49:22.017Z,2.40
2023-06-29T20:51:54.567Z,2.90
2023-06-29T20:54:25.477Z,3.25
2023-06-29T20:56:58.536Z,2.85
2023-06-29T20:59:31.871Z,3.30
2023-06-29T21:02:04.350Z,3.35
2023-06-29T21:04:36.054Z,2.47
2023-06-29T21:07:07.014Z,2.30
2023-06-29T21:09:37.727Z,2.20
2023-06-29T21:12:13.348Z,2.13
2023-06-29T21:14:44.877Z,1.88
2023-06-29T21:17:16.616Z,2.25
2023-06-29T21:19:47.540Z,2.13
2023-06-29T21:22:19.189Z,2.47
2023-06-29T21:24:51.060Z,2.70
2023-06-29T21:27:24.815Z,3.88
2023-06-29T21:29:55.915Z,3.45
2023-06-29T21:32:28.874Z,3.67
2023-06-29T21:35:00.069Z,2.60
2023-06-29T21:37:31.510Z,2.22
2023-06-29T21:40:02.231Z,2.70
2023-06-29T21:42:35.715Z,2.50
2023-06-29T21:45:06.571Z,2.30
2023-06-29T21:47:37.102Z,2.40
2023-06-29T21:52:38.669Z,2.50
2023-06-29T21:55:11.065Z,2.67
2023-06-29T21:57:50.010Z,2.35
2023-06-29T22:00:22.590Z,2.50
2023-06-29T22:02:53.943Z,3.22
2023-06-29T22:05:26.173Z,3.50
2023-06-29T22:10:31.884Z,2.40
2023-06-29T22:13:05.433Z,2.88
2023-06-29T22:15:38.477Z,2.53
2023-06-29T22:18:09.140Z,2.38
2023-06-29T22:20:39.752Z,2.20
2023-06-29T22:25:40.597Z,2.17
2023-06-29T22:28:14.221Z,2.38
2023-06-29T22:30:44.859Z,2.15
2023-06-29T22:33:15.511Z,1.98
2023-06-29T22:35:46.741Z,2.00
2023-06-29T22:38:17.506Z,2.10
2023-06-29T22:43:21.156Z,1.90
2023-06-29T22:45:51.994Z,2.05
2023-06-29T22:48:23.090Z,2.38
2023-06-29T22:50:56.837Z,1.90
2023-06-29T22:53:27.663Z,1.92
2023-06-29T22:55:58.512Z,2.25
2023-06-29T22:58:31.677Z,2.10
2023-06-29T23:01:02.181Z,2.28
2023-06-29T23:06:03.904Z,4.82
2023-06-29T23:08:37.572Z,4.60
2023-06-29T23:11:08.974Z,4.90
2023-06-29T23:13:42.117Z,2.80
2023-06-29T23:16:14.146Z,2.40
2023-06-29T23:18:44.764Z,1.90
2023-06-29T23:23:47.684Z,2.20
2023-06-29T23:26:20.591Z,2.03
2023-06-29T23:28:55.747Z,2.30
2023-06-29T23:31:26.481Z,2.22
2023-06-29T23:33:57.041Z,2.20
2023-06-29T23:38:58.676Z,2.20
2023-06-29T23:41:30.855Z,2.20
2023-06-29T23:44:06.881Z,2.97
2023-06-29T23:46:46.160Z,2.33
2023-06-29T23:49:19.534Z,2.42
2023-06-29T23:51:50.730Z,2.20
2023-06-29T23:54:21.530Z,2.17
2023-06-29T23:56:52.942Z,2.40
2023-06-29T23:59:26.105Z,2.25
